createdAt,value
2022-11-29T00:00:41.590Z,85.54
2022-11-29T00:01:43.516Z,84.42
2022-11-29T00:02:45.262Z,84.78
2022-11-29T00:03:46.908Z,85.30
2022-11-29T00:04:48.519Z,86.06
2022-11-29T00:05:51.598Z,86.86
2022-11-29T00:06:53.100Z,87.09
2022-11-29T00:07:54.714Z,87.75
2022-11-29T00:08:59.068Z,87.78
2022-11-29T00:10:00.699Z,88.10
2022-11-29T00:11:11.358Z,89.30
2022-11-29T00:12:12.898Z,89.12
2022-11-29T00:13:14.767Z,88.73
2022-11-29T00:14:18.704Z,89.07
2022-11-29T00:15:20.307Z,89.42
2022-11-29T00:16:21.938Z,89.25
2022-11-29T00:17:23.538Z,89.24
2022-11-29T00:18:25.098Z,88.99
2022-11-29T00:19:26.646Z,88.57
2022-11-29T00:20:28.193Z,88.40
2022-11-29T00:21:29.841Z,89.74
2022-11-29T00:22:31.358Z,90.17
2022-11-29T00:23:33.034Z,90.29
2022-11-29T00:24:34.778Z,90.31
2022-11-29T00:25:38.601Z,90.54
2022-11-29T00:26:40.281Z,91.13
2022-11-29T00:27:41.825Z,91.99
2022-11-29T00:28:43.362Z,92.17
2022-11-29T00:29:44.919Z,91.25
2022-11-29T00:30:47.318Z,91.27
2022-11-29T00:31:49.103Z,92.26
2022-11-29T00:32:50.705Z,93.51
2022-11-29T00:33:52.630Z,94.46
2022-11-29T00:34:56.397Z,94.82
2022-11-29T00:36:01.598Z,95.43
2022-11-29T00:37:03.277Z,95.32
2022-11-29T00:38:04.837Z,95.56
2022-11-29T00:39:07.223Z,95.74
2022-11-29T00:40:09.121Z,95.82
2022-11-29T00:41:11.714Z,95.34
2022-11-29T00:42:13.365Z,94.96
2022-11-29T00:43:14.990Z,95.18
2022-11-29T00:44:20.215Z,95.28
2022-11-29T00:45:22.234Z,95.93
2022-11-29T00:46:25.157Z,95.70
2022-11-29T00:47:26.860Z,95.78
2022-11-29T00:48:28.561Z,95.49
2022-11-29T00:49:30.097Z,96.83
2022-11-29T00:50:31.679Z,97.89
2022-11-29T00:51:33.407Z,98.75
2022-11-29T00:52:35.161Z,98.78
2022-11-29T00:53:37.848Z,98.89
2022-11-29T00:54:39.398Z,98.83
2022-11-29T00:55:41.045Z,99.37
2022-11-29T00:56:42.987Z,99.19
2022-11-29T00:57:44.539Z,99.17
2022-11-29T00:58:46.228Z,98.60
2022-11-29T00:59:47.793Z,98.38
2022-11-29T01:00:49.753Z,98.50
2022-11-29T01:01:51.374Z,99.38
2022-11-29T01:02:53.016Z,99.57
2022-11-29T01:03:54.664Z,99.25
2022-11-29T01:04:56.232Z,99.55
2022-11-29T01:06:09.974Z,98.62
2022-11-29T01:07:11.611Z,98.62
2022-11-29T01:08:14.353Z,98.70
2022-11-29T01:09:15.889Z,98.80
2022-11-29T01:10:17.522Z,98.85
2022-11-29T01:11:22.341Z,99.10
2022-11-29T01:12:23.921Z,98.97
2022-11-29T01:13:25.468Z,99.62
2022-11-29T01:14:27.067Z,98.95
2022-11-29T01:15:28.888Z,99.06
2022-11-29T01:16:31.668Z,99.35
2022-11-29T01:17:36.877Z,99.46
2022-11-29T01:18:39.109Z,99.34
2022-11-29T01:19:40.935Z,98.46
2022-11-29T01:20:43.961Z,97.99
2022-11-29T01:21:45.525Z,97.18
2022-11-29T01:22:47.135Z,96.54
2022-11-29T01:23:50.321Z,95.39
2022-11-29T01:24:51.961Z,94.77
2022-11-29T01:26:02.187Z,93.27
2022-11-29T01:27:03.706Z,92.76
2022-11-29T01:28:05.297Z,91.81
2022-11-29T01:29:06.945Z,91.44
2022-11-29T01:30:10.163Z,90.74
2022-11-29T01:31:15.555Z,90.07
2022-11-29T01:32:17.296Z,89.48
2022-11-29T01:33:18.999Z,88.41
2022-11-29T01:34:20.527Z,88.25
2022-11-29T01:35:22.042Z,88.25
2022-11-29T01:36:24.787Z,87.63
2022-11-29T01:37:29.108Z,85.19
2022-11-29T01:38:31.115Z,85.26
2022-11-29T01:39:32.644Z,84.78
2022-11-29T01:40:34.237Z,85.04
2022-11-29T01:41:37.778Z,84.63
2022-11-29T01:42:39.308Z,85.02
2022-11-29T01:44:07.049Z,84.40
2022-11-29T01:45:28.973Z,84.08
2022-11-29T01:46:33.373Z,83.32
2022-11-29T01:47:40.975Z,82.68
2022-11-29T01:48:42.542Z,82.05
2022-11-29T01:49:49.923Z,82.16
2022-11-29T01:50:54.627Z,82.73
2022-11-29T01:52:02.438Z,82.67
2022-11-29T01:53:04.798Z,83.77
2022-11-29T01:54:08.685Z,84.62
2022-11-29T01:55:10.499Z,84.02
2022-11-29T01:56:14.426Z,84.30
2022-11-29T01:57:16.591Z,85.04
2022-11-29T01:58:18.352Z,85.61
2022-11-29T01:59:23.379Z,85.65
2022-11-29T02:00:25.074Z,85.56
2022-11-29T02:01:26.738Z,85.11
2022-11-29T02:02:35.923Z,85.81
2022-11-29T02:03:37.677Z,86.06
2022-11-29T02:04:42.390Z,86.29
2022-11-29T02:05:54.975Z,86.58
2022-11-29T02:06:56.469Z,86.75
2022-11-29T02:08:00.398Z,87.00
2022-11-29T02:09:02.613Z,86.73
2022-11-29T02:10:05.900Z,87.24
2022-11-29T02:11:35.682Z,86.84
2022-11-29T02:12:50.289Z,87.30
2022-11-29T02:14:10.745Z,87.37
2022-11-29T02:15:45.475Z,87.63
2022-11-29T02:17:14.709Z,87.45
2022-11-29T02:18:48.677Z,88.98
2022-11-29T02:20:08.978Z,89.30
2022-11-29T02:21:20.002Z,89.36
2022-11-29T02:22:43.475Z,89.01
2022-11-29T02:23:45.007Z,89.22
2022-11-29T02:25:11.825Z,88.66
2022-11-29T02:26:31.870Z,87.92
2022-11-29T02:27:55.300Z,88.32
2022-11-29T02:29:05.740Z,88.47
2022-11-29T02:30:38.984Z,88.30
2022-11-29T02:32:04.268Z,87.40
2022-11-29T02:33:12.095Z,87.71
2022-11-29T02:34:39.865Z,87.59
2022-11-29T02:36:09.534Z,87.60
2022-11-29T02:37:46.326Z,87.79
2022-11-29T02:39:15.674Z,88.42
2022-11-29T02:40:28.522Z,88.59
2022-11-29T02:41:33.107Z,88.55
2022-11-29T02:42:55.648Z,88.81
2022-11-29T02:44:26.005Z,87.99
2022-11-29T02:45:36.797Z,88.05
2022-11-29T02:47:01.251Z,88.14
2022-11-29T02:48:11.541Z,88.73
2022-11-29T02:49:28.207Z,89.26
2022-11-29T02:50:29.689Z,89.38
2022-11-29T02:51:42.482Z,88.77
2022-11-29T02:52:59.875Z,88.77
2022-11-29T02:54:26.509Z,89.61
2022-11-29T02:55:38.450Z,89.98
2022-11-29T02:56:46.719Z,89.91
2022-11-29T02:58:17.469Z,90.53
2022-11-29T02:59:37.190Z,91.01
2022-11-29T03:00:47.095Z,90.63
2022-11-29T03:02:27.581Z,89.69
2022-11-29T03:03:43.608Z,88.77
2022-11-29T03:05:14.062Z,88.48
2022-11-29T03:06:31.007Z,87.72
2022-11-29T03:07:56.108Z,88.06
2022-11-29T03:09:09.558Z,87.82
2022-11-29T03:10:33.769Z,87.70
2022-11-29T03:11:51.034Z,86.28
2022-11-29T03:12:54.454Z,86.26
2022-11-29T03:14:13.246Z,86.22
2022-11-29T03:15:30.313Z,86.30
2022-11-29T03:16:59.424Z,87.39
2022-11-29T03:18:06.825Z,87.64
2022-11-29T03:19:29.746Z,88.44
2022-11-29T03:21:01.650Z,88.10
2022-11-29T03:22:12.407Z,88.02
2022-11-29T03:23:17.716Z,87.52
2022-11-29T03:24:46.548Z,86.38
2022-11-29T03:26:21.064Z,85.55
2022-11-29T03:27:43.685Z,85.48
2022-11-29T03:29:07.149Z,85.19
2022-11-29T03:30:12.555Z,85.03
2022-11-29T03:31:21.602Z,84.18
2022-11-29T03:32:34.606Z,83.51
2022-11-29T03:33:50.847Z,83.75
2022-11-29T03:35:28.281Z,83.88
2022-11-29T03:36:41.193Z,83.96
2022-11-29T03:37:51.955Z,84.43
2022-11-29T03:38:58.619Z,84.80
2022-11-29T03:40:09.803Z,83.82
2022-11-29T03:41:28.323Z,83.93
2022-11-29T03:42:45.485Z,84.50
2022-11-29T03:44:07.211Z,84.75
2022-11-29T03:45:18.725Z,85.32
2022-11-29T03:46:57.244Z,84.93
2022-11-29T03:48:33.067Z,83.78
2022-11-29T03:49:47.685Z,84.14
2022-11-29T03:50:57.691Z,83.96
2022-11-29T03:52:21.323Z,84.27
2022-11-29T03:53:47.244Z,83.57
2022-11-29T03:55:04.038Z,83.78
2022-11-29T03:56:23.207Z,83.21
2022-11-29T03:57:34.921Z,82.92
2022-11-29T03:58:42.478Z,83.58
2022-11-29T04:00:05.705Z,82.40
2022-11-29T04:01:24.920Z,83.36
2022-11-29T04:02:44.438Z,83.73
2022-11-29T04:04:23.335Z,83.76
2022-11-29T04:05:46.527Z,82.86
2022-11-29T04:07:08.907Z,83.34
2022-11-29T04:08:37.786Z,83.28
2022-11-29T04:10:01.191Z,85.59
2022-11-29T04:11:08.858Z,89.68
2022-11-29T04:12:40.492Z,87.74
2022-11-29T04:14:00.563Z,86.55
2022-11-29T04:15:39.363Z,86.76
2022-11-29T04:16:43.843Z,86.01
2022-11-29T04:17:48.217Z,85.30
2022-11-29T04:19:17.589Z,85.10
2022-11-29T04:20:54.682Z,84.00
2022-11-29T04:22:19.845Z,84.55
2022-11-29T04:23:46.714Z,83.57
2022-11-29T04:25:13.087Z,83.85
2022-11-29T04:26:35.029Z,84.20
2022-11-29T04:27:49.576Z,84.84
2022-11-29T04:29:15.638Z,84.88
2022-11-29T04:30:23.654Z,84.96
2022-11-29T04:32:02.740Z,84.88
2022-11-29T04:33:23.024Z,85.31
2022-11-29T04:34:43.727Z,85.76
2022-11-29T04:36:22.943Z,86.45
2022-11-29T04:37:45.133Z,86.84
2022-11-29T04:39:01.678Z,86.99
2022-11-29T04:40:14.930Z,87.42
2022-11-29T04:41:55.555Z,87.91
2022-11-29T04:43:15.727Z,87.90
2022-11-29T04:44:35.836Z,88.13
2022-11-29T04:45:40.445Z,88.34
2022-11-29T04:46:54.828Z,88.04
2022-11-29T04:48:22.747Z,88.33
2022-11-29T04:49:56.738Z,88.09
2022-11-29T04:51:01.213Z,88.15
2022-11-29T04:52:28.091Z,87.42
2022-11-29T04:54:04.496Z,87.97
2022-11-29T04:55:31.230Z,88.28
2022-11-29T04:56:47.117Z,88.80
2022-11-29T04:57:57.655Z,89.36
2022-11-29T04:59:07.819Z,89.19
2022-11-29T05:00:12.143Z,89.21
2022-11-29T05:01:41.374Z,90.06
2022-11-29T05:03:13.597Z,89.30
2022-11-29T05:04:28.179Z,89.18
2022-11-29T05:05:35.698Z,90.38
2022-11-29T05:06:55.989Z,89.74
2022-11-29T05:08:03.460Z,90.12
2022-11-29T05:09:33.158Z,89.28
2022-11-29T05:11:14.368Z,88.96
2022-11-29T05:12:29.665Z,87.99
2022-11-29T05:13:54.529Z,87.92
2022-11-29T05:15:29.989Z,88.38
2022-11-29T05:17:04.369Z,91.66
2022-11-29T05:18:10.061Z,91.55
2022-11-29T05:19:18.142Z,90.98
2022-11-29T05:20:38.470Z,90.74
2022-11-29T05:22:28.059Z,89.70
2022-11-29T05:23:47.955Z,89.14
2022-11-29T05:25:27.676Z,88.22
2022-11-29T05:26:31.756Z,87.57
2022-11-29T05:27:49.283Z,86.65
2022-11-29T05:29:11.911Z,86.37
2022-11-29T05:30:20.938Z,85.18
2022-11-29T05:31:57.819Z,85.61
2022-11-29T05:33:31.636Z,85.30
2022-11-29T05:34:52.025Z,84.97
2022-11-29T05:36:03.380Z,84.55
2022-11-29T05:37:19.330Z,85.52
2022-11-29T05:38:45.378Z,87.77
2022-11-29T05:39:49.526Z,87.84
2022-11-29T05:41:17.181Z,87.21
2022-11-29T05:42:32.487Z,87.63
2022-11-29T05:43:59.858Z,87.80
2022-11-29T05:45:10.559Z,88.46
2022-11-29T05:46:27.391Z,88.66
2022-11-29T05:48:04.657Z,87.50
2022-11-29T05:49:27.480Z,87.25
2022-11-29T05:50:37.990Z,86.03
2022-11-29T05:51:53.768Z,85.76
2022-11-29T05:53:06.999Z,85.28
2022-11-29T05:54:36.974Z,85.10
2022-11-29T05:56:12.612Z,84.79
2022-11-29T05:57:47.587Z,84.40
2022-11-29T05:59:12.879Z,84.09
2022-11-29T06:00:17.499Z,84.42
2022-11-29T06:01:26.155Z,84.09
2022-11-29T06:02:27.860Z,83.92
2022-11-29T06:03:41.874Z,83.42
2022-11-29T06:05:03.656Z,83.86
2022-11-29T06:06:35.434Z,84.27
2022-11-29T06:07:43.064Z,83.82
2022-11-29T06:08:48.478Z,84.02
2022-11-29T06:10:17.804Z,84.57
2022-11-29T06:11:52.184Z,83.15
2022-11-29T06:13:27.271Z,83.78
2022-11-29T06:14:50.466Z,83.01
2022-11-29T06:16:04.177Z,82.40
2022-11-29T06:17:38.783Z,82.81
2022-11-29T06:18:55.162Z,83.92
2022-11-29T06:20:04.344Z,83.95
2022-11-29T06:21:17.382Z,82.90
2022-11-29T06:22:21.329Z,82.90
2022-11-29T06:23:42.956Z,83.19
2022-11-29T06:25:05.016Z,82.48
2022-11-29T06:26:13.143Z,82.65
2022-11-29T06:27:26.679Z,82.89
2022-11-29T06:29:02.227Z,83.52
2022-11-29T06:30:13.478Z,82.95
2022-11-29T06:31:33.940Z,81.33
2022-11-29T06:32:44.658Z,81.30
2022-11-29T06:34:04.886Z,82.08
2022-11-29T06:35:47.592Z,82.10
2022-11-29T06:37:05.463Z,82.21
2022-11-29T06:38:28.513Z,82.31
2022-11-29T06:39:30.338Z,82.04
2022-11-29T06:40:33.132Z,82.46
2022-11-29T06:41:35.059Z,81.92
2022-11-29T06:42:36.594Z,82.28
2022-11-29T06:43:38.754Z,83.30
2022-11-29T06:44:40.651Z,83.21
2022-11-29T06:45:50.237Z,82.48
2022-11-29T06:46:53.884Z,82.36
2022-11-29T06:48:03.582Z,83.93
2022-11-29T06:49:27.916Z,84.65
2022-11-29T06:50:38.159Z,84.98
2022-11-29T06:51:58.045Z,85.40
2022-11-29T06:53:37.877Z,85.55
2022-11-29T06:55:15.449Z,85.80
2022-11-29T06:56:55.209Z,85.58
2022-11-29T06:58:55.310Z,85.41
2022-11-29T07:00:18.849Z,84.83
2022-11-29T07:01:31.510Z,84.56
2022-11-29T07:02:54.188Z,85.85
2022-11-29T07:04:01.663Z,84.72
2022-11-29T07:05:18.631Z,84.25
2022-11-29T07:06:27.356Z,84.96
2022-11-29T07:07:29.302Z,85.21
2022-11-29T07:08:31.162Z,84.94
2022-11-29T07:09:34.642Z,85.75
2022-11-29T07:10:38.787Z,84.92
2022-11-29T07:11:40.844Z,85.14
2022-11-29T07:12:43.000Z,84.88
2022-11-29T07:13:44.829Z,85.70
2022-11-29T07:14:52.380Z,85.11
2022-11-29T07:16:19.910Z,85.10
2022-11-29T07:17:36.406Z,83.90
2022-11-29T07:19:07.637Z,83.30
2022-11-29T07:20:31.307Z,83.59
2022-11-29T07:21:51.702Z,84.88
2022-11-29T07:23:02.344Z,83.69
2022-11-29T07:24:51.057Z,84.53
2022-11-29T07:26:07.817Z,84.60
2022-11-29T07:27:32.760Z,84.36
2022-11-29T07:29:03.764Z,85.23
2022-11-29T07:30:28.221Z,85.20
2022-11-29T07:31:48.842Z,84.80
2022-11-29T07:33:09.101Z,83.85
2022-11-29T07:34:13.605Z,84.96
2022-11-29T07:35:30.746Z,85.08
2022-11-29T07:36:35.344Z,86.27
2022-11-29T07:37:48.018Z,85.71
2022-11-29T07:39:10.945Z,85.93
2022-11-29T07:40:18.218Z,86.18
2022-11-29T07:41:57.321Z,84.90
2022-11-29T07:43:17.115Z,85.15
2022-11-29T07:44:24.598Z,84.45
2022-11-29T07:45:29.934Z,85.02
2022-11-29T07:46:31.501Z,84.48
2022-11-29T07:47:35.999Z,85.03
2022-11-29T07:48:37.861Z,85.26
2022-11-29T07:49:39.389Z,85.19
2022-11-29T07:50:41.341Z,85.61
2022-11-29T07:51:43.424Z,85.75
2022-11-29T07:52:44.975Z,86.03
2022-11-29T07:53:46.755Z,86.35
2022-11-29T07:54:48.648Z,86.36
2022-11-29T07:55:50.531Z,86.51
2022-11-29T07:56:52.118Z,86.38
2022-11-29T07:57:53.663Z,85.20
2022-11-29T07:58:55.280Z,85.55
2022-11-29T07:59:56.790Z,83.91
2022-11-29T08:00:58.425Z,84.27
2022-11-29T08:02:00.055Z,85.29
2022-11-29T08:03:01.709Z,85.12
2022-11-29T08:04:03.433Z,85.47
2022-11-29T08:05:05.280Z,85.08
2022-11-29T08:06:07.006Z,85.34
2022-11-29T08:07:08.577Z,85.05
2022-11-29T08:08:10.174Z,84.99
2022-11-29T08:09:11.838Z,85.12
2022-11-29T08:10:15.540Z,85.41
2022-11-29T08:11:17.297Z,86.30
2022-11-29T08:12:18.853Z,87.53
2022-11-29T08:13:21.226Z,87.08
2022-11-29T08:14:22.837Z,86.83
2022-11-29T08:15:25.485Z,86.00
2022-11-29T08:16:27.294Z,86.04
2022-11-29T08:17:28.917Z,85.59
2022-11-29T08:18:30.516Z,86.64
2022-11-29T08:19:32.178Z,85.42
2022-11-29T08:20:33.708Z,85.46
2022-11-29T08:21:35.222Z,86.36
2022-11-29T08:22:36.838Z,86.11
2022-11-29T08:23:38.380Z,87.39
2022-11-29T08:24:39.988Z,86.89
2022-11-29T08:25:41.898Z,86.84
2022-11-29T08:26:43.519Z,86.40
2022-11-29T08:27:45.060Z,86.10
2022-11-29T08:28:51.898Z,86.64
2022-11-29T08:29:53.483Z,87.01
2022-11-29T08:31:06.326Z,88.21
2022-11-29T08:32:09.029Z,87.42
2022-11-29T08:33:10.613Z,88.05
2022-11-29T08:34:12.655Z,86.59
2022-11-29T08:35:14.331Z,86.80
2022-11-29T08:36:20.214Z,86.21
2022-11-29T08:37:21.880Z,86.27
2022-11-29T08:38:23.434Z,85.80
2022-11-29T08:39:25.099Z,84.89
2022-11-29T08:40:26.733Z,85.86
2022-11-29T08:41:29.671Z,84.73
2022-11-29T08:42:31.249Z,85.08
2022-11-29T08:43:33.131Z,84.37
2022-11-29T08:44:34.834Z,83.66
2022-11-29T08:45:36.487Z,84.71
2022-11-29T08:46:56.758Z,83.26
2022-11-29T08:47:58.339Z,83.15
2022-11-29T08:49:00.075Z,83.33
2022-11-29T08:50:06.243Z,82.95
2022-11-29T08:51:07.832Z,83.23
2022-11-29T08:52:27.906Z,82.55
2022-11-29T08:53:42.105Z,82.48
2022-11-29T08:54:44.135Z,81.92
2022-11-29T08:55:46.755Z,81.51
2022-11-29T08:58:13.297Z,82.76
2022-11-29T08:59:14.859Z,82.35
2022-11-29T09:00:17.838Z,83.24
2022-11-29T09:01:20.315Z,82.24
2022-11-29T09:02:21.956Z,82.40
2022-11-29T09:03:42.170Z,81.63
2022-11-29T09:04:43.853Z,80.91
2022-11-29T09:05:45.536Z,81.65
2022-11-29T09:06:49.632Z,81.26
2022-11-29T09:07:51.297Z,82.13
2022-11-29T09:08:56.520Z,81.79
2022-11-29T09:09:58.197Z,81.51
2022-11-29T09:10:59.900Z,82.62
2022-11-29T09:12:01.479Z,83.03
2022-11-29T09:13:03.042Z,83.26
2022-11-29T09:14:07.549Z,82.70
2022-11-29T09:15:10.663Z,83.67
2022-11-29T09:16:15.704Z,84.31
2022-11-29T09:17:17.217Z,84.13
2022-11-29T09:18:18.750Z,84.24
2022-11-29T09:19:20.335Z,83.66
2022-11-29T09:20:22.013Z,84.28
2022-11-29T09:21:25.990Z,83.88
2022-11-29T09:22:27.585Z,84.29
2022-11-29T09:23:29.213Z,83.28
2022-11-29T09:24:30.929Z,84.40
2022-11-29T09:25:32.478Z,84.55
2022-11-29T09:26:36.907Z,83.07
2022-11-29T09:27:38.505Z,83.98
2022-11-29T09:28:40.059Z,83.33
2022-11-29T09:29:41.639Z,84.20
2022-11-29T09:30:43.209Z,83.55
2022-11-29T09:31:45.338Z,83.51
2022-11-29T09:32:47.385Z,84.00
2022-11-29T09:33:49.123Z,84.90
2022-11-29T09:34:50.741Z,84.25
2022-11-29T09:35:58.062Z,82.80
2022-11-29T09:36:59.626Z,82.53
2022-11-29T09:38:01.298Z,82.86
2022-11-29T09:39:03.400Z,82.80
2022-11-29T09:40:05.625Z,82.53
2022-11-29T09:41:37.833Z,82.50
2022-11-29T09:42:55.646Z,82.34
2022-11-29T09:44:15.915Z,79.37
2022-11-29T09:45:20.809Z,79.97
2022-11-29T09:46:22.317Z,78.31
2022-11-29T09:47:26.918Z,78.49
2022-11-29T09:48:47.232Z,78.57
2022-11-29T09:50:10.532Z,76.29
2022-11-29T09:51:15.425Z,75.07
2022-11-29T09:52:42.955Z,75.88
2022-11-29T09:54:21.195Z,78.09
2022-11-29T09:55:37.850Z,76.14
2022-11-29T09:56:44.512Z,77.02
2022-11-29T09:57:48.118Z,77.12
2022-11-29T09:58:57.886Z,75.40
2022-11-29T10:00:05.047Z,75.85
2022-11-29T10:01:10.848Z,75.99
2022-11-29T10:02:22.365Z,76.49
2022-11-29T10:03:30.329Z,75.90
2022-11-29T10:04:41.043Z,77.85
2022-11-29T10:05:53.868Z,78.76
2022-11-29T10:07:14.651Z,77.93
2022-11-29T10:08:27.484Z,77.38
2022-11-29T10:09:37.882Z,76.08
2022-11-29T10:10:50.902Z,76.81
2022-11-29T10:11:55.249Z,76.59
2022-11-29T10:13:05.082Z,76.44
2022-11-29T10:14:16.429Z,75.02
2022-11-29T10:15:27.413Z,75.15
2022-11-29T10:16:43.815Z,77.19
2022-11-29T10:18:27.327Z,79.27
2022-11-29T10:19:41.865Z,79.22
2022-11-29T10:20:49.061Z,78.40
2022-11-29T10:22:03.597Z,75.99
2022-11-29T10:23:26.601Z,78.27
2022-11-29T10:24:29.529Z,77.57
2022-11-29T10:25:37.683Z,75.60
2022-11-29T10:26:39.333Z,77.12
2022-11-29T10:27:40.938Z,77.30
2022-11-29T10:28:47.678Z,78.41
2022-11-29T10:29:51.325Z,80.27
2022-11-29T10:30:58.476Z,85.86
2022-11-29T10:32:10.016Z,78.49
2022-11-29T10:33:28.947Z,77.52
2022-11-29T10:34:30.936Z,76.09
2022-11-29T10:35:33.572Z,76.12
2022-11-29T10:36:48.419Z,76.58
2022-11-29T10:38:28.555Z,76.74
2022-11-29T10:39:42.373Z,76.64
2022-11-29T10:40:47.611Z,76.58
2022-11-29T10:41:56.678Z,76.19
2022-11-29T10:42:58.561Z,75.34
2022-11-29T10:44:00.488Z,75.53
2022-11-29T10:45:02.995Z,74.44
2022-11-29T10:46:06.512Z,74.60
2022-11-29T10:47:11.088Z,74.34
2022-11-29T10:48:16.966Z,73.70
2022-11-29T10:49:21.787Z,72.68
2022-11-29T10:50:28.976Z,72.32
2022-11-29T10:51:32.041Z,71.95
2022-11-29T10:52:34.028Z,72.15
2022-11-29T10:53:38.537Z,71.92
2022-11-29T10:54:44.471Z,72.26
2022-11-29T10:55:46.187Z,71.59
2022-11-29T10:56:48.466Z,72.90
2022-11-29T10:58:13.682Z,72.60
2022-11-29T10:59:23.520Z,72.61
2022-11-29T11:00:25.650Z,71.29
2022-11-29T11:01:29.129Z,71.05
2022-11-29T11:02:31.823Z,70.37
2022-11-29T11:03:52.842Z,70.76
2022-11-29T11:04:54.874Z,71.43
2022-11-29T11:06:07.137Z,70.48
2022-11-29T11:07:23.052Z,70.53
2022-11-29T11:08:26.369Z,70.13
2022-11-29T11:09:34.296Z,70.98
2022-11-29T11:10:35.960Z,70.14
2022-11-29T11:11:38.688Z,69.54
2022-11-29T11:12:40.342Z,67.97
2022-11-29T11:13:42.242Z,68.53
2022-11-29T11:14:45.427Z,68.44
2022-11-29T11:15:47.244Z,69.18
2022-11-29T11:16:49.033Z,69.86
2022-11-29T11:17:59.882Z,69.38
2022-11-29T11:19:27.649Z,69.40
2022-11-29T11:20:31.738Z,69.49
2022-11-29T11:21:38.605Z,71.16
2022-11-29T11:22:41.201Z,70.68
2022-11-29T11:23:46.818Z,71.30
2022-11-29T11:24:57.369Z,70.18
2022-11-29T11:26:03.053Z,70.29
2022-11-29T11:27:04.711Z,69.55
2022-11-29T11:28:15.400Z,69.88
2022-11-29T11:29:25.075Z,68.94
2022-11-29T11:30:29.444Z,70.13
2022-11-29T11:31:34.780Z,70.57
2022-11-29T11:32:37.042Z,70.20
2022-11-29T11:33:41.517Z,71.05
2022-11-29T11:34:52.672Z,70.74
2022-11-29T11:36:01.581Z,70.72
2022-11-29T11:37:15.486Z,70.64
2022-11-29T11:38:17.834Z,70.93
2022-11-29T11:39:22.072Z,71.64
2022-11-29T11:40:29.810Z,72.47
2022-11-29T11:41:49.936Z,72.05
2022-11-29T11:42:51.649Z,71.84
2022-11-29T11:43:58.526Z,71.24
2022-11-29T11:45:01.252Z,72.33
2022-11-29T11:46:03.015Z,71.75
2022-11-29T11:47:24.309Z,71.89
2022-11-29T11:48:27.490Z,72.26
2022-11-29T11:50:08.128Z,71.35
2022-11-29T11:51:24.474Z,71.31
2022-11-29T11:52:39.793Z,72.01
2022-11-29T11:53:44.228Z,71.66
2022-11-29T11:54:51.332Z,71.88
2022-11-29T11:56:03.807Z,72.10
2022-11-29T11:57:15.544Z,71.33
2022-11-29T11:58:22.034Z,71.95
2022-11-29T11:59:26.665Z,71.04
2022-11-29T12:01:20.542Z,71.27
2022-11-29T12:02:35.891Z,70.93
2022-11-29T12:03:59.188Z,72.24
2022-11-29T12:05:02.869Z,71.17
2022-11-29T12:06:38.358Z,71.47
2022-11-29T12:08:09.856Z,71.22
2022-11-29T12:09:26.268Z,71.60
2022-11-29T12:10:31.847Z,71.14
2022-11-29T12:11:50.498Z,71.83
2022-11-29T12:12:53.620Z,71.14
2022-11-29T12:13:59.227Z,71.33
2022-11-29T12:15:24.852Z,71.94
2022-11-29T12:16:34.297Z,70.96
2022-11-29T12:17:49.977Z,71.25
2022-11-29T12:18:57.270Z,71.47
2022-11-29T12:20:17.803Z,71.55
2022-11-29T12:21:27.547Z,71.33
2022-11-29T12:22:37.660Z,70.77
2022-11-29T12:24:12.946Z,70.93
2022-11-29T12:25:22.085Z,70.88
2022-11-29T12:27:52.383Z,70.88
2022-11-29T12:28:54.134Z,72.26
2022-11-29T12:29:56.767Z,71.72
2022-11-29T12:31:44.663Z,71.05
2022-11-29T12:33:00.085Z,70.79
2022-11-29T12:34:22.628Z,70.76
2022-11-29T12:35:37.514Z,70.29
2022-11-29T12:37:05.631Z,70.70
2022-11-29T12:38:34.000Z,71.22
2022-11-29T12:39:43.331Z,70.88
2022-11-29T12:41:07.091Z,71.26
2022-11-29T12:42:39.470Z,71.75
2022-11-29T12:44:05.267Z,71.91
2022-11-29T12:45:40.145Z,72.13
2022-11-29T12:46:54.377Z,71.38
2022-11-29T12:48:06.614Z,70.75
2022-11-29T12:49:34.443Z,70.60
2022-11-29T12:51:06.754Z,70.89
2022-11-29T12:52:34.671Z,70.30
2022-11-29T12:54:33.145Z,70.75
2022-11-29T12:55:46.417Z,71.89
2022-11-29T12:57:13.457Z,70.09
2022-11-29T12:58:45.612Z,70.17
2022-11-29T13:00:03.579Z,70.87
2022-11-29T13:01:21.935Z,69.79
2022-11-29T13:02:35.418Z,71.08
2022-11-29T13:03:47.307Z,71.10
2022-11-29T13:05:01.560Z,70.50
2022-11-29T13:06:29.623Z,69.96
2022-11-29T13:08:07.998Z,70.82
2022-11-29T13:09:27.014Z,71.42
2022-11-29T13:10:49.651Z,71.88
2022-11-29T13:11:54.219Z,72.36
2022-11-29T13:13:03.517Z,72.17
2022-11-29T13:14:40.999Z,72.73
2022-11-29T13:15:43.251Z,72.28
2022-11-29T13:17:02.755Z,72.30
2022-11-29T13:18:31.319Z,72.68
2022-11-29T13:19:44.785Z,73.21
2022-11-29T13:20:57.274Z,73.55
2022-11-29T13:22:20.175Z,73.90
2022-11-29T13:24:07.948Z,74.05
2022-11-29T13:25:21.322Z,74.01
2022-11-29T13:26:26.204Z,74.66
2022-11-29T13:27:32.918Z,74.28
2022-11-29T13:28:37.327Z,73.88
2022-11-29T13:29:38.958Z,74.76
2022-11-29T13:30:40.870Z,74.63
2022-11-29T13:31:44.023Z,74.90
2022-11-29T13:33:12.101Z,74.82
2022-11-29T13:34:17.126Z,75.23
2022-11-29T13:35:25.417Z,74.67
2022-11-29T13:36:39.056Z,75.54
2022-11-29T13:37:55.181Z,75.92
2022-11-29T13:39:08.849Z,75.45
2022-11-29T13:40:30.557Z,75.71
2022-11-29T13:41:45.739Z,75.62
2022-11-29T13:43:03.082Z,75.77
2022-11-29T13:44:16.042Z,75.75
2022-11-29T13:45:40.256Z,76.25
2022-11-29T13:46:41.840Z,76.28
2022-11-29T13:48:27.601Z,76.72
2022-11-29T13:49:51.195Z,77.07
2022-11-29T13:50:52.863Z,76.19
2022-11-29T13:52:06.262Z,77.42
2022-11-29T13:53:23.603Z,77.33
2022-11-29T13:54:27.922Z,77.89
2022-11-29T13:55:31.196Z,77.75
2022-11-29T13:56:46.422Z,78.03
2022-11-29T13:58:15.067Z,78.30
2022-11-29T13:59:22.574Z,78.41
2022-11-29T14:00:34.669Z,79.07
2022-11-29T14:01:56.675Z,79.10
2022-11-29T14:03:23.892Z,79.26
2022-11-29T14:04:39.169Z,79.20
2022-11-29T14:05:41.311Z,79.19
2022-11-29T14:06:43.170Z,79.81
2022-11-29T14:08:54.578Z,80.10
2022-11-29T14:10:02.275Z,80.31
2022-11-29T14:11:06.651Z,79.93
2022-11-29T14:12:39.847Z,80.33
2022-11-29T14:13:41.336Z,80.80
2022-11-29T14:15:00.793Z,80.32
2022-11-29T14:16:04.959Z,80.82
2022-11-29T14:17:29.067Z,80.80
2022-11-29T14:18:36.548Z,80.73
2022-11-29T14:19:38.170Z,80.73
2022-11-29T14:20:39.686Z,80.45
2022-11-29T14:21:59.240Z,80.97
2022-11-29T14:23:06.786Z,81.36
2022-11-29T14:24:35.162Z,81.94
2022-11-29T14:25:52.587Z,81.60
2022-11-29T14:27:06.693Z,82.01
2022-11-29T14:28:14.224Z,81.71
2022-11-29T14:29:55.196Z,82.03
2022-11-29T14:31:01.603Z,82.31
2022-11-29T14:32:03.769Z,83.10
2022-11-29T14:33:21.606Z,82.84
2022-11-29T14:34:29.815Z,83.09
2022-11-29T14:35:37.529Z,83.06
2022-11-29T14:36:52.243Z,83.39
2022-11-29T14:38:31.158Z,83.36
2022-11-29T14:39:49.097Z,83.58
2022-11-29T14:41:03.614Z,84.43
2022-11-29T14:42:20.047Z,84.70
2022-11-29T14:43:37.985Z,84.14
2022-11-29T14:44:48.618Z,84.38
2022-11-29T14:46:15.974Z,84.43
2022-11-29T14:47:24.417Z,84.11
2022-11-29T14:48:27.958Z,84.94
2022-11-29T14:49:31.515Z,84.13
2022-11-29T14:50:37.396Z,84.88
2022-11-29T14:51:39.555Z,85.01
2022-11-29T14:52:51.365Z,84.71
2022-11-29T14:54:02.068Z,85.25
2022-11-29T14:55:08.258Z,84.54
2022-11-29T14:56:31.159Z,84.63
2022-11-29T14:57:50.564Z,84.43
2022-11-29T14:59:29.801Z,84.67
2022-11-29T15:00:55.053Z,84.76
2022-11-29T15:01:57.071Z,84.79
2022-11-29T15:03:03.674Z,84.86
2022-11-29T15:04:06.230Z,84.27
2022-11-29T15:05:10.429Z,84.50
2022-11-29T15:06:17.142Z,84.68
2022-11-29T15:07:25.552Z,84.50
2022-11-29T15:08:27.276Z,84.41
2022-11-29T15:09:32.115Z,84.57
2022-11-29T15:10:39.015Z,84.39
2022-11-29T15:11:50.162Z,84.35
2022-11-29T15:12:52.507Z,84.11
2022-11-29T15:14:19.039Z,84.52
2022-11-29T15:15:29.547Z,83.95
2022-11-29T15:17:15.924Z,84.13
2022-11-29T15:18:27.029Z,83.90
2022-11-29T15:19:31.588Z,84.36
2022-11-29T15:20:37.474Z,84.35
2022-11-29T15:21:54.166Z,85.04
2022-11-29T15:23:00.890Z,85.13
2022-11-29T15:24:15.588Z,85.42
2022-11-29T15:25:23.937Z,86.18
2022-11-29T15:26:25.460Z,86.00
2022-11-29T15:27:27.077Z,85.70
2022-11-29T15:28:29.735Z,85.50
2022-11-29T15:29:31.680Z,85.65
2022-11-29T15:30:36.426Z,85.67
2022-11-29T15:31:42.099Z,85.63
2022-11-29T15:32:44.149Z,86.22